sensor_id;sensor_type;location;lat;lon;timestamp;P1;durP1;ratioP1;P2;durP2;ratioP2
1507;SDS011;745;48.586;10.032;2022-12-10T00:02:26;25.87;;;15.47;;
1507;SDS011;745;48.586;10.032;2022-12-10T00:06:57;29.07;;;16.40;;
1507;SDS011;745;48.586;10.032;2022-12-10T00:11:27;25.70;;;15.40;;
1507;SDS011;745;48.586;10.032;2022-12-10T00:16:01;22.30;;;14.23;;
1507;SDS011;745;48.586;10.032;2022-12-10T00:20:33;25.33;;;14.03;;
1507;SDS011;745;48.586;10.032;2022-12-10T00:25:03;23.40;;;14.23;;
1507;SDS011;745;48.586;10.032;2022-12-10T00:29:34;31.20;;;17.30;;
1507;SDS011;745;48.586;10.032;2022-12-10T00:34:06;25.23;;;14.73;;
1507;SDS011;745;48.586;10.032;2022-12-10T00:38:41;31.90;;;20.30;;
1507;SDS011;745;48.586;10.032;2022-12-10T00:43:12;32.63;;;20.17;;
1507;SDS011;745;48.586;10.032;2022-12-10T00:47:43;28.93;;;17.43;;
1507;SDS011;745;48.586;10.032;2022-12-10T00:52:13;30.80;;;19.80;;
1507;SDS011;745;48.586;10.032;2022-12-10T00:56:44;30.33;;;18.73;;
1507;SDS011;745;48.586;10.032;2022-12-10T01:01:36;25.40;;;15.17;;
1507;SDS011;745;48.586;10.032;2022-12-10T01:06:20;30.70;;;18.17;;
1507;SDS011;745;48.586;10.032;2022-12-10T01:10:53;23.67;;;15.03;;
1507;SDS011;745;48.586;10.032;2022-12-10T01:15:23;23.03;;;15.73;;
1507;SDS011;745;48.586;10.032;2022-12-10T01:19:53;23.33;;;14.33;;
1507;SDS011;745;48.586;10.032;2022-12-10T01:24:24;28.13;;;17.50;;
1507;SDS011;745;48.586;10.032;2022-12-10T01:28:56;23.23;;;14.83;;
1507;SDS011;745;48.586;10.032;2022-12-10T01:33:27;29.00;;;15.87;;
1507;SDS011;745;48.586;10.032;2022-12-10T01:37:57;24.33;;;14.23;;
1507;SDS011;745;48.586;10.032;2022-12-10T01:42:28;23.77;;;14.87;;
1507;SDS011;745;48.586;10.032;2022-12-10T01:46:59;22.00;;;13.63;;
1507;SDS011;745;48.586;10.032;2022-12-10T01:51:32;21.60;;;13.50;;
1507;SDS011;745;48.586;10.032;2022-12-10T01:56:04;20.70;;;12.73;;
1507;SDS011;745;48.586;10.032;2022-12-10T02:00:34;25.70;;;16.40;;
1507;SDS011;745;48.586;10.032;2022-12-10T02:05:57;24.03;;;14.97;;
1507;SDS011;745;48.586;10.032;2022-12-10T02:15:24;25.60;;;16.10;;
1507;SDS011;745;48.586;10.032;2022-12-10T02:24:47;25.80;;;15.80;;
1507;SDS011;745;48.586;10.032;2022-12-10T02:29:20;27.40;;;16.43;;
1507;SDS011;745;48.586;10.032;2022-12-10T02:33:53;24.70;;;15.80;;
1507;SDS011;745;48.586;10.032;2022-12-10T02:38:28;22.67;;;14.77;;
1507;SDS011;745;48.586;10.032;2022-12-10T02:43:00;30.20;;;18.40;;
1507;SDS011;745;48.586;10.032;2022-12-10T02:47:30;28.67;;;16.27;;
1507;SDS011;745;48.586;10.032;2022-12-10T02:52:08;28.40;;;16.87;;
1507;SDS011;745;48.586;10.032;2022-12-10T02:56:42;27.67;;;16.50;;
1507;SDS011;745;48.586;10.032;2022-12-10T03:06:12;24.97;;;15.70;;
1507;SDS011;745;48.586;10.032;2022-12-10T03:10:55;21.40;;;14.30;;
1507;SDS011;745;48.586;10.032;2022-12-10T03:15:31;23.60;;;14.17;;
1507;SDS011;745;48.586;10.032;2022-12-10T03:20:04;24.00;;;13.80;;
1507;SDS011;745;48.586;10.032;2022-12-10T03:24:38;21.47;;;13.90;;
1507;SDS011;745;48.586;10.032;2022-12-10T03:29:10;22.03;;;13.27;;
1507;SDS011;745;48.586;10.032;2022-12-10T03:33:45;27.17;;;16.00;;
1507;SDS011;745;48.586;10.032;2022-12-10T03:38:17;27.70;;;17.63;;
1507;SDS011;745;48.586;10.032;2022-12-10T03:42:48;23.90;;;16.17;;
1507;SDS011;745;48.586;10.032;2022-12-10T03:47:19;29.50;;;18.17;;
1507;SDS011;745;48.586;10.032;2022-12-10T03:51:49;25.23;;;16.17;;
1507;SDS011;745;48.586;10.032;2022-12-10T03:56:20;26.07;;;14.70;;
1507;SDS011;745;48.586;10.032;2022-12-10T04:00:52;27.20;;;16.60;;
1507;SDS011;745;48.586;10.032;2022-12-10T04:05:22;27.33;;;16.50;;
1507;SDS011;745;48.586;10.032;2022-12-10T04:09:53;31.57;;;17.50;;
1507;SDS011;745;48.586;10.032;2022-12-10T04:14:24;25.17;;;16.40;;
1507;SDS011;745;48.586;10.032;2022-12-10T04:19:15;34.80;;;19.17;;
1507;SDS011;745;48.586;10.032;2022-12-10T04:23:47;30.60;;;18.43;;
1507;SDS011;745;48.586;10.032;2022-12-10T04:28:36;32.07;;;18.47;;
1507;SDS011;745;48.586;10.032;2022-12-10T04:33:07;30.20;;;19.40;;
1507;SDS011;745;48.586;10.032;2022-12-10T04:37:37;32.93;;;18.73;;
1507;SDS011;745;48.586;10.032;2022-12-10T04:42:08;26.97;;;16.73;;
1507;SDS011;745;48.586;10.032;2022-12-10T04:46:38;29.87;;;18.87;;
1507;SDS011;745;48.586;10.032;2022-12-10T04:51:09;32.13;;;17.10;;
1507;SDS011;745;48.586;10.032;2022-12-10T04:55:40;29.40;;;18.40;;
1507;SDS011;745;48.586;10.032;2022-12-10T05:00:11;27.63;;;17.27;;
1507;SDS011;745;48.586;10.032;2022-12-10T05:04:42;33.20;;;19.53;;
1507;SDS011;745;48.586;10.032;2022-12-10T05:09:13;37.17;;;19.07;;
1507;SDS011;745;48.586;10.032;2022-12-10T05:13:43;28.17;;;17.10;;
1507;SDS011;745;48.586;10.032;2022-12-10T05:18:14;29.23;;;17.63;;
1507;SDS011;745;48.586;10.032;2022-12-10T05:22:45;30.60;;;18.10;;
1507;SDS011;745;48.586;10.032;2022-12-10T05:27:33;33.10;;;21.13;;
1507;SDS011;745;48.586;10.032;2022-12-10T05:32:04;29.67;;;18.60;;
1507;SDS011;745;48.586;10.032;2022-12-10T05:36:35;26.10;;;15.70;;
1507;SDS011;745;48.586;10.032;2022-12-10T05:41:06;23.80;;;15.50;;
1507;SDS011;745;48.586;10.032;2022-12-10T05:45:42;26.60;;;15.77;;
1507;SDS011;745;48.586;10.032;2022-12-10T05:50:13;21.20;;;13.10;;
1507;SDS011;745;48.586;10.032;2022-12-10T05:54:44;26.57;;;13.73;;
1507;SDS011;745;48.586;10.032;2022-12-10T05:59:14;26.10;;;15.27;;
1507;SDS011;745;48.586;10.032;2022-12-10T06:03:44;20.77;;;13.70;;
1507;SDS011;745;48.586;10.032;2022-12-10T06:08:15;24.53;;;14.93;;
1507;SDS011;745;48.586;10.032;2022-12-10T06:12:45;20.17;;;13.67;;
1507;SDS011;745;48.586;10.032;2022-12-10T06:17:16;20.63;;;14.70;;
1507;SDS011;745;48.586;10.032;2022-12-10T06:21:47;24.20;;;14.90;;
1507;SDS011;745;48.586;10.032;2022-12-10T06:26:19;22.90;;;13.67;;
1507;SDS011;745;48.586;10.032;2022-12-10T06:30:53;22.97;;;13.80;;
1507;SDS011;745;48.586;10.032;2022-12-10T06:35:24;23.93;;;14.50;;
1507;SDS011;745;48.586;10.032;2022-12-10T06:39:54;24.70;;;15.10;;
1507;SDS011;745;48.586;10.032;2022-12-10T06:44:25;22.90;;;14.07;;
1507;SDS011;745;48.586;10.032;2022-12-10T06:48:55;19.77;;;12.90;;
1507;SDS011;745;48.586;10.032;2022-12-10T06:53:25;29.77;;;16.87;;
1507;SDS011;745;48.586;10.032;2022-12-10T06:57:57;23.93;;;15.20;;
1507;SDS011;745;48.586;10.032;2022-12-10T07:02:27;23.43;;;14.90;;
1507;SDS011;745;48.586;10.032;2022-12-10T07:06:57;21.07;;;13.60;;
1507;SDS011;745;48.586;10.032;2022-12-10T07:11:28;17.80;;;12.43;;
1507;SDS011;745;48.586;10.032;2022-12-10T07:16:00;18.67;;;12.30;;
1507;SDS011;745;48.586;10.032;2022-12-10T07:20:31;18.33;;;11.60;;
1507;SDS011;745;48.586;10.032;2022-12-10T07:25:01;17.53;;;11.00;;
1507;SDS011;745;48.586;10.032;2022-12-10T07:29:33;18.60;;;10.63;;
1507;SDS011;745;48.586;10.032;2022-12-10T07:34:04;16.17;;;11.43;;
1507;SDS011;745;48.586;10.032;2022-12-10T07:38:34;21.40;;;14.37;;
1507;SDS011;745;48.586;10.032;2022-12-10T07:43:05;21.43;;;12.50;;
1507;SDS011;745;48.586;10.032;2022-12-10T07:47:37;21.60;;;12.00;;
1507;SDS011;745;48.586;10.032;2022-12-10T07:52:09;17.17;;;12.63;;
1507;SDS011;745;48.586;10.032;2022-12-10T07:56:39;14.53;;;10.60;;
1507;SDS011;745;48.586;10.032;2022-12-10T08:01:12;18.77;;;11.87;;
1507;SDS011;745;48.586;10.032;2022-12-10T08:05:43;20.80;;;12.80;;
1507;SDS011;745;48.586;10.032;2022-12-10T08:10:14;14.87;;;10.03;;
1507;SDS011;745;48.586;10.032;2022-12-10T08:14:44;14.00;;;10.53;;
1507;SDS011;745;48.586;10.032;2022-12-10T08:19:15;19.60;;;11.93;;
1507;SDS011;745;48.586;10.032;2022-12-10T08:23:45;15.40;;;10.00;;
1507;SDS011;745;48.586;10.032;2022-12-10T08:28:16;15.30;;;9.53;;
1507;SDS011;745;48.586;10.032;2022-12-10T08:32:47;14.30;;;9.40;;
1507;SDS011;745;48.586;10.032;2022-12-10T08:37:17;14.83;;;10.47;;
1507;SDS011;745;48.586;10.032;2022-12-10T08:41:47;13.07;;;9.73;;
1507;SDS011;745;48.586;10.032;2022-12-10T08:46:18;15.77;;;10.20;;
1507;SDS011;745;48.586;10.032;2022-12-10T08:50:48;13.87;;;9.53;;
1507;SDS011;745;48.586;10.032;2022-12-10T08:55:19;16.30;;;10.60;;
1507;SDS011;745;48.586;10.032;2022-12-10T08:59:50;17.53;;;10.80;;
1507;SDS011;745;48.586;10.032;2022-12-10T09:04:20;13.90;;;10.67;;
1507;SDS011;745;48.586;10.032;2022-12-10T09:08:56;18.67;;;12.17;;
1507;SDS011;745;48.586;10.032;2022-12-10T09:13:27;13.87;;;9.80;;
1507;SDS011;745;48.586;10.032;2022-12-10T09:17:58;15.87;;;10.87;;
1507;SDS011;745;48.586;10.032;2022-12-10T09:22:28;13.37;;;10.03;;
1507;SDS011;745;48.586;10.032;2022-12-10T09:27:00;15.80;;;10.00;;
1507;SDS011;745;48.586;10.032;2022-12-10T09:31:31;10.63;;;9.03;;
1507;SDS011;745;48.586;10.032;2022-12-10T09:36:02;15.73;;;10.00;;
1507;SDS011;745;48.586;10.032;2022-12-10T09:40:38;13.43;;;10.20;;
1507;SDS011;745;48.586;10.032;2022-12-10T09:49:59;13.17;;;10.03;;
1507;SDS011;745;48.586;10.032;2022-12-10T09:54:32;14.30;;;10.20;;
1507;SDS011;745;48.586;10.032;2022-12-10T10:03:54;11.50;;;7.70;;
1507;SDS011;745;48.586;10.032;2022-12-10T10:08:31;11.73;;;8.00;;
1507;SDS011;745;48.586;10.032;2022-12-10T10:17:38;10.83;;;8.27;;
1507;SDS011;745;48.586;10.032;2022-12-10T10:22:09;11.13;;;8.00;;
1507;SDS011;745;48.586;10.032;2022-12-10T10:26:40;11.83;;;8.23;;
1507;SDS011;745;48.586;10.032;2022-12-10T10:31:23;16.37;;;10.27;;
1507;SDS011;745;48.586;10.032;2022-12-10T10:35:56;13.10;;;9.10;;
1507;SDS011;745;48.586;10.032;2022-12-10T10:40:32;12.23;;;8.60;;
1507;SDS011;745;48.586;10.032;2022-12-10T10:50:12;15.03;;;10.47;;
1507;SDS011;745;48.586;10.032;2022-12-10T10:54:54;15.87;;;10.67;;
1507;SDS011;745;48.586;10.032;2022-12-10T10:59:31;20.60;;;13.10;;
1507;SDS011;745;48.586;10.032;2022-12-10T11:04:03;16.10;;;11.87;;
1507;SDS011;745;48.586;10.032;2022-12-10T11:08:34;15.77;;;11.53;;
1507;SDS011;745;48.586;10.032;2022-12-10T11:13:18;15.60;;;11.07;;
1507;SDS011;745;48.586;10.032;2022-12-10T11:17:53;19.40;;;13.50;;
1507;SDS011;745;48.586;10.032;2022-12-10T11:27:07;17.67;;;12.20;;
1507;SDS011;745;48.586;10.032;2022-12-10T11:36:25;14.90;;;11.70;;
1507;SDS011;745;48.586;10.032;2022-12-10T11:50:53;17.37;;;12.57;;
1507;SDS011;745;48.586;10.032;2022-12-10T12:19:17;17.43;;;12.40;;
1507;SDS011;745;48.586;10.032;2022-12-10T12:28:39;20.37;;;14.30;;
1507;SDS011;745;48.586;10.032;2022-12-10T12:33:20;19.17;;;14.07;;
1507;SDS011;745;48.586;10.032;2022-12-10T12:43:04;18.10;;;13.60;;
1507;SDS011;745;48.586;10.032;2022-12-10T12:47:47;20.13;;;13.00;;
1507;SDS011;745;48.586;10.032;2022-12-10T13:21:16;16.80;;;12.00;;
1507;SDS011;745;48.586;10.032;2022-12-10T13:39:47;21.00;;;12.80;;
1507;SDS011;745;48.586;10.032;2022-12-10T13:49:18;18.93;;;13.13;;
1507;SDS011;745;48.586;10.032;2022-12-10T13:53:54;18.70;;;12.30;;
1507;SDS011;745;48.586;10.032;2022-12-10T14:08:22;17.33;;;11.83;;
1507;SDS011;745;48.586;10.032;2022-12-10T14:12:55;17.10;;;11.87;;
1507;SDS011;745;48.586;10.032;2022-12-10T14:17:33;17.87;;;12.30;;
1507;SDS011;745;48.586;10.032;2022-12-10T14:22:06;17.70;;;11.77;;
1507;SDS011;745;48.586;10.032;2022-12-10T14:26:37;17.07;;;10.67;;
1507;SDS011;745;48.586;10.032;2022-12-10T14:31:10;17.50;;;11.33;;
1507;SDS011;745;48.586;10.032;2022-12-10T14:35:47;16.23;;;11.30;;
1507;SDS011;745;48.586;10.032;2022-12-10T14:40:23;15.73;;;10.93;;
1507;SDS011;745;48.586;10.032;2022-12-10T14:45:03;15.90;;;10.93;;
1507;SDS011;745;48.586;10.032;2022-12-10T14:49:38;16.77;;;11.60;;
1507;SDS011;745;48.586;10.032;2022-12-10T14:54:24;17.90;;;11.40;;
1507;SDS011;745;48.586;10.032;2022-12-10T14:59:12;16.73;;;10.63;;
1507;SDS011;745;48.586;10.032;2022-12-10T15:03:49;15.13;;;10.87;;
1507;SDS011;745;48.586;10.032;2022-12-10T15:08:21;14.80;;;10.73;;
1507;SDS011;745;48.586;10.032;2022-12-10T15:12:52;17.90;;;12.23;;
1507;SDS011;745;48.586;10.032;2022-12-10T15:17:36;24.50;;;14.67;;
1507;SDS011;745;48.586;10.032;2022-12-10T15:22:21;21.20;;;14.40;;
1507;SDS011;745;48.586;10.032;2022-12-10T15:26:52;20.90;;;15.53;;
1507;SDS011;745;48.586;10.032;2022-12-10T15:35:57;25.03;;;15.97;;
1507;SDS011;745;48.586;10.032;2022-12-10T15:40:29;24.30;;;15.33;;
1507;SDS011;745;48.586;10.032;2022-12-10T15:45:02;26.50;;;14.90;;
1507;SDS011;745;48.586;10.032;2022-12-10T15:49:39;24.50;;;14.93;;
1507;SDS011;745;48.586;10.032;2022-12-10T15:54:18;25.80;;;15.43;;
1507;SDS011;745;48.586;10.032;2022-12-10T15:58:50;22.97;;;14.70;;
1507;SDS011;745;48.586;10.032;2022-12-10T16:03:20;22.63;;;14.90;;
1507;SDS011;745;48.586;10.032;2022-12-10T16:07:52;24.43;;;13.90;;
1507;SDS011;745;48.586;10.032;2022-12-10T16:12:24;20.30;;;13.20;;
1507;SDS011;745;48.586;10.032;2022-12-10T16:16:54;20.03;;;11.40;;
1507;SDS011;745;48.586;10.032;2022-12-10T16:21:24;22.23;;;14.43;;
1507;SDS011;745;48.586;10.032;2022-12-10T16:25:55;27.20;;;14.40;;
1507;SDS011;745;48.586;10.032;2022-12-10T16:30:35;24.53;;;14.83;;
1507;SDS011;745;48.586;10.032;2022-12-10T16:35:07;24.90;;;14.83;;
1507;SDS011;745;48.586;10.032;2022-12-10T16:39:38;23.07;;;15.10;;
1507;SDS011;745;48.586;10.032;2022-12-10T16:44:11;28.57;;;16.67;;
1507;SDS011;745;48.586;10.032;2022-12-10T16:53:33;25.97;;;14.93;;
1507;SDS011;745;48.586;10.032;2022-12-10T16:58:08;24.50;;;16.37;;
1507;SDS011;745;48.586;10.032;2022-12-10T17:02:44;25.30;;;15.57;;
1507;SDS011;745;48.586;10.032;2022-12-10T17:07:15;26.63;;;14.53;;
1507;SDS011;745;48.586;10.032;2022-12-10T17:11:45;21.80;;;13.23;;
1507;SDS011;745;48.586;10.032;2022-12-10T17:16:18;22.23;;;14.20;;
1507;SDS011;745;48.586;10.032;2022-12-10T17:20:51;22.63;;;14.47;;
1507;SDS011;745;48.586;10.032;2022-12-10T17:25:21;20.23;;;13.23;;
1507;SDS011;745;48.586;10.032;2022-12-10T17:29:52;21.90;;;14.30;;
1507;SDS011;745;48.586;10.032;2022-12-10T17:34:26;22.93;;;13.53;;
1507;SDS011;745;48.586;10.032;2022-12-10T17:38:57;21.70;;;13.73;;
1507;SDS011;745;48.586;10.032;2022-12-10T17:43:27;24.30;;;15.80;;
1507;SDS011;745;48.586;10.032;2022-12-10T17:47:57;25.23;;;15.63;;
1507;SDS011;745;48.586;10.032;2022-12-10T17:52:29;24.10;;;15.83;;
1507;SDS011;745;48.586;10.032;2022-12-10T17:56:59;22.77;;;15.27;;
1507;SDS011;745;48.586;10.032;2022-12-10T18:01:30;20.00;;;12.53;;
1507;SDS011;745;48.586;10.032;2022-12-10T18:06:01;27.67;;;15.20;;
1507;SDS011;745;48.586;10.032;2022-12-10T18:10:33;22.07;;;14.50;;
1507;SDS011;745;48.586;10.032;2022-12-10T18:15:04;25.07;;;15.67;;
1507;SDS011;745;48.586;10.032;2022-12-10T18:19:35;24.30;;;15.40;;
1507;SDS011;745;48.586;10.032;2022-12-10T18:24:06;26.63;;;14.70;;
1507;SDS011;745;48.586;10.032;2022-12-10T18:33:12;21.97;;;14.77;;
1507;SDS011;745;48.586;10.032;2022-12-10T18:37:43;19.93;;;13.00;;
1507;SDS011;745;48.586;10.032;2022-12-10T18:42:14;24.20;;;14.77;;
1507;SDS011;745;48.586;10.032;2022-12-10T18:46:44;22.43;;;13.60;;
1507;SDS011;745;48.586;10.032;2022-12-10T18:51:15;21.73;;;13.03;;
1507;SDS011;745;48.586;10.032;2022-12-10T18:55:46;19.97;;;12.50;;
1507;SDS011;745;48.586;10.032;2022-12-10T19:00:18;23.97;;;13.13;;
1507;SDS011;745;48.586;10.032;2022-12-10T19:04:50;22.63;;;12.10;;
1507;SDS011;745;48.586;10.032;2022-12-10T19:09:21;21.63;;;13.50;;
1507;SDS011;745;48.586;10.032;2022-12-10T19:13:51;24.30;;;15.00;;
1507;SDS011;745;48.586;10.032;2022-12-10T19:18:22;20.07;;;12.73;;
1507;SDS011;745;48.586;10.032;2022-12-10T19:22:52;19.70;;;12.80;;
1507;SDS011;745;48.586;10.032;2022-12-10T19:27:23;22.43;;;12.73;;
1507;SDS011;745;48.586;10.032;2022-12-10T19:31:54;20.13;;;13.27;;
1507;SDS011;745;48.586;10.032;2022-12-10T19:36:25;24.27;;;13.87;;
1507;SDS011;745;48.586;10.032;2022-12-10T19:40:56;20.53;;;12.67;;
1507;SDS011;745;48.586;10.032;2022-12-10T19:45:27;22.10;;;14.53;;
1507;SDS011;745;48.586;10.032;2022-12-10T19:49:58;22.87;;;13.13;;
1507;SDS011;745;48.586;10.032;2022-12-10T19:54:28;17.43;;;11.20;;
1507;SDS011;745;48.586;10.032;2022-12-10T19:59:00;23.00;;;13.10;;
1507;SDS011;745;48.586;10.032;2022-12-10T20:03:33;22.30;;;12.47;;
1507;SDS011;745;48.586;10.032;2022-12-10T20:08:03;22.00;;;12.50;;
1507;SDS011;745;48.586;10.032;2022-12-10T20:12:35;16.40;;;9.73;;
1507;SDS011;745;48.586;10.032;2022-12-10T20:17:07;21.00;;;11.37;;
1507;SDS011;745;48.586;10.032;2022-12-10T20:21:39;19.57;;;10.87;;
1507;SDS011;745;48.586;10.032;2022-12-10T20:30:45;17.63;;;10.43;;
1507;SDS011;745;48.586;10.032;2022-12-10T20:35:16;18.70;;;10.57;;
1507;SDS011;745;48.586;10.032;2022-12-10T20:39:48;20.70;;;11.90;;
1507;SDS011;745;48.586;10.032;2022-12-10T20:44:18;20.83;;;11.77;;
1507;SDS011;745;48.586;10.032;2022-12-10T20:48:49;17.70;;;11.10;;
1507;SDS011;745;48.586;10.032;2022-12-10T20:53:20;19.70;;;11.53;;
1507;SDS011;745;48.586;10.032;2022-12-10T20:57:50;19.80;;;11.87;;
1507;SDS011;745;48.586;10.032;2022-12-10T21:02:20;25.80;;;13.43;;
1507;SDS011;745;48.586;10.032;2022-12-10T21:06:51;27.70;;;15.50;;
1507;SDS011;745;48.586;10.032;2022-12-10T21:11:22;26.17;;;13.60;;
1507;SDS011;745;48.586;10.032;2022-12-10T21:15:53;19.77;;;11.73;;
1507;SDS011;745;48.586;10.032;2022-12-10T21:20:24;20.77;;;11.53;;
1507;SDS011;745;48.586;10.032;2022-12-10T21:24:55;20.57;;;11.87;;
1507;SDS011;745;48.586;10.032;2022-12-10T21:29:25;22.07;;;10.50;;
1507;SDS011;745;48.586;10.032;2022-12-10T21:33:56;21.50;;;11.77;;
1507;SDS011;745;48.586;10.032;2022-12-10T21:38:27;17.27;;;11.27;;
1507;SDS011;745;48.586;10.032;2022-12-10T21:42:57;18.40;;;11.57;;
1507;SDS011;745;48.586;10.032;2022-12-10T21:47:46;17.47;;;10.80;;
1507;SDS011;745;48.586;10.032;2022-12-10T21:52:16;18.87;;;10.57;;
1507;SDS011;745;48.586;10.032;2022-12-10T21:56:47;15.73;;;9.70;;
1507;SDS011;745;48.586;10.032;2022-12-10T22:01:17;20.77;;;11.53;;
1507;SDS011;745;48.586;10.032;2022-12-10T22:05:48;19.00;;;11.00;;
1507;SDS011;745;48.586;10.032;2022-12-10T22:10:18;22.23;;;13.37;;
1507;SDS011;745;48.586;10.032;2022-12-10T22:14:49;19.77;;;11.83;;
1507;SDS011;745;48.586;10.032;2022-12-10T22:19:19;25.43;;;14.40;;
1507;SDS011;745;48.586;10.032;2022-12-10T22:23:53;21.57;;;12.03;;
1507;SDS011;745;48.586;10.032;2022-12-10T22:28:24;24.43;;;13.47;;
1507;SDS011;745;48.586;10.032;2022-12-10T22:32:56;26.10;;;15.80;;
1507;SDS011;745;48.586;10.032;2022-12-10T22:37:27;28.20;;;15.63;;
1507;SDS011;745;48.586;10.032;2022-12-10T22:41:57;20.63;;;12.07;;
1507;SDS011;745;48.586;10.032;2022-12-10T22:46:27;19.67;;;12.87;;
1507;SDS011;745;48.586;10.032;2022-12-10T22:51:01;31.57;;;15.73;;
1507;SDS011;745;48.586;10.032;2022-12-10T22:55:33;34.47;;;17.20;;
1507;SDS011;745;48.586;10.032;2022-12-10T23:00:05;33.73;;;17.50;;
1507;SDS011;745;48.586;10.032;2022-12-10T23:04:40;28.37;;;16.33;;
1507;SDS011;745;48.586;10.032;2022-12-10T23:09:11;33.57;;;16.23;;
1507;SDS011;745;48.586;10.032;2022-12-10T23:13:41;24.97;;;15.87;;
1507;SDS011;745;48.586;10.032;2022-12-10T23:18:12;27.00;;;15.87;;
1507;SDS011;745;48.586;10.032;2022-12-10T23:22:43;27.70;;;15.70;;
1507;SDS011;745;48.586;10.032;2022-12-10T23:27:13;24.30;;;15.63;;
1507;SDS011;745;48.586;10.032;2022-12-10T23:31:45;29.43;;;15.53;;
1507;SDS011;745;48.586;10.032;2022-12-10T23:36:15;26.73;;;16.30;;
1507;SDS011;745;48.586;10.032;2022-12-10T23:40:46;28.13;;;15.87;;
1507;SDS011;745;48.586;10.032;2022-12-10T23:45:16;29.37;;;15.63;;
1507;SDS011;745;48.586;10.032;2022-12-10T23:49:50;25.53;;;14.30;;
1507;SDS011;745;48.586;10.032;2022-12-10T23:54:21;26.23;;;16.00;;
1507;SDS011;745;48.586;10.032;2022-12-10T23:58:51;31.50;;;18.80;;
